sensor_id;sensor_type;location;lat;lon;timestamp;pressure;altitude;pressure_sealevel;temperature;humidity
34658;BME280;20865;43.312;27.152;2023-07-24T00:02:07;100561.42;;;30.34;38.02
34658;BME280;20865;43.312;27.152;2023-07-24T00:04:35;100562.43;;;30.33;38.06
34658;BME280;20865;43.312;27.152;2023-07-24T00:07:03;100566.74;;;30.32;38.08
34658;BME280;20865;43.312;27.152;2023-07-24T00:09:30;100568.97;;;30.28;38.16
34658;BME280;20865;43.312;27.152;2023-07-24T00:11:58;100562.27;;;30.27;38.08
34658;BME280;20865;43.312;27.152;2023-07-24T00:14:26;100560.70;;;30.24;38.01
34658;BME280;20865;43.312;27.152;2023-07-24T00:16:53;100561.22;;;30.24;37.90
34658;BME280;20865;43.312;27.152;2023-07-24T00:19:21;100558.61;;;30.18;37.97
34658;BME280;20865;43.312;27.152;2023-07-24T00:21:48;100557.56;;;30.19;37.97
34658;BME280;20865;43.312;27.152;2023-07-24T00:24:16;100553.06;;;30.14;37.93
34658;BME280;20865;43.312;27.152;2023-07-24T00:26:44;100547.66;;;30.47;37.16
34658;BME280;20865;43.312;27.152;2023-07-24T00:29:11;100555.81;;;30.14;37.58
34658;BME280;20865;43.312;27.152;2023-07-24T00:31:39;100553.38;;;30.07;37.67
34658;BME280;20865;43.312;27.152;2023-07-24T00:34:06;100551.47;;;30.03;37.89
34658;BME280;20865;43.312;27.152;2023-07-24T00:36:34;100556.98;;;30.03;37.84
34658;BME280;20865;43.312;27.152;2023-07-24T00:39:01;100563.66;;;29.97;37.97
34658;BME280;20865;43.312;27.152;2023-07-24T00:41:29;100560.52;;;29.91;38.00
34658;BME280;20865;43.312;27.152;2023-07-24T00:43:56;100559.50;;;29.88;38.07
34658;BME280;20865;43.312;27.152;2023-07-24T00:46:24;100559.99;;;29.88;38.32
34658;BME280;20865;43.312;27.152;2023-07-24T00:48:52;100567.38;;;29.83;38.19
34658;BME280;20865;43.312;27.152;2023-07-24T00:51:20;100557.41;;;29.82;38.25
34658;BME280;20865;43.312;27.152;2023-07-24T00:53:48;100560.14;;;29.78;38.39
34658;BME280;20865;43.312;27.152;2023-07-24T00:56:15;100559.44;;;29.76;38.33
34658;BME280;20865;43.312;27.152;2023-07-24T00:58:43;100554.59;;;29.74;38.37
34658;BME280;20865;43.312;27.152;2023-07-24T01:01:11;100556.33;;;29.71;38.17
34658;BME280;20865;43.312;27.152;2023-07-24T01:03:39;100554.23;;;29.69;37.98
34658;BME280;20865;43.312;27.152;2023-07-24T01:06:06;100556.63;;;29.64;37.92
34658;BME280;20865;43.312;27.152;2023-07-24T01:08:34;100558.34;;;29.65;37.73
34658;BME280;20865;43.312;27.152;2023-07-24T01:11:19;100557.76;;;29.57;37.82
34658;BME280;20865;43.312;27.152;2023-07-24T01:13:48;100557.89;;;29.52;37.83
34658;BME280;20865;43.312;27.152;2023-07-24T01:16:18;100563.05;;;29.51;37.87
34658;BME280;20865;43.312;27.152;2023-07-24T01:18:46;100563.35;;;29.43;37.98
34658;BME280;20865;43.312;27.152;2023-07-24T01:21:15;100566.77;;;29.41;38.26
34658;BME280;20865;43.312;27.152;2023-07-24T01:26:21;100564.50;;;29.37;38.72
34658;BME280;20865;43.312;27.152;2023-07-24T01:28:53;100560.38;;;29.37;38.56
34658;BME280;20865;43.312;27.152;2023-07-24T01:31:20;100562.94;;;29.34;38.45
34658;BME280;20865;43.312;27.152;2023-07-24T01:33:48;100562.22;;;29.32;38.46
34658;BME280;20865;43.312;27.152;2023-07-24T01:36:19;100556.72;;;29.32;38.58
34658;BME280;20865;43.312;27.152;2023-07-24T01:38:47;100559.13;;;29.31;38.60
34658;BME280;20865;43.312;27.152;2023-07-24T01:41:15;100557.55;;;29.29;38.74
34658;BME280;20865;43.312;27.152;2023-07-24T01:43:43;100573.89;;;29.26;38.96
34658;BME280;20865;43.312;27.152;2023-07-24T01:46:11;100564.58;;;29.23;39.00
34658;BME280;20865;43.312;27.152;2023-07-24T01:48:39;100562.52;;;29.25;38.97
34658;BME280;20865;43.312;27.152;2023-07-24T01:51:06;100563.55;;;29.24;38.88
34658;BME280;20865;43.312;27.152;2023-07-24T01:53:34;100557.36;;;29.22;38.81
34658;BME280;20865;43.312;27.152;2023-07-24T01:56:01;100563.00;;;29.20;38.72
34658;BME280;20865;43.312;27.152;2023-07-24T01:58:29;100568.82;;;29.17;38.69
34658;BME280;20865;43.312;27.152;2023-07-24T02:00:56;100566.07;;;29.17;38.57
34658;BME280;20865;43.312;27.152;2023-07-24T02:03:24;100559.52;;;29.14;38.61
34658;BME280;20865;43.312;27.152;2023-07-24T02:05:52;100563.64;;;29.14;38.74
34658;BME280;20865;43.312;27.152;2023-07-24T02:08:19;100568.80;;;29.13;38.81
34658;BME280;20865;43.312;27.152;2023-07-24T02:10:49;100567.59;;;29.12;38.89
34658;BME280;20865;43.312;27.152;2023-07-24T02:13:17;100560.72;;;29.12;38.90
34658;BME280;20865;43.312;27.152;2023-07-24T02:15:44;100553.78;;;29.08;38.92
34658;BME280;20865;43.312;27.152;2023-07-24T02:18:12;100547.94;;;29.07;38.72
34658;BME280;20865;43.312;27.152;2023-07-24T02:20:39;100550.49;;;29.04;38.50
34658;BME280;20865;43.312;27.152;2023-07-24T02:23:08;100552.88;;;28.99;38.42
34658;BME280;20865;43.312;27.152;2023-07-24T02:25:36;100557.86;;;29.00;38.39
34658;BME280;20865;43.312;27.152;2023-07-24T02:28:04;100551.64;;;28.98;38.40
34658;BME280;20865;43.312;27.152;2023-07-24T02:30:31;100549.20;;;28.94;38.45
34658;BME280;20865;43.312;27.152;2023-07-24T02:32:59;100555.36;;;28.92;38.66
34658;BME280;20865;43.312;27.152;2023-07-24T02:35:27;100556.39;;;28.91;38.47
34658;BME280;20865;43.312;27.152;2023-07-24T02:37:54;100559.05;;;28.83;38.24
34658;BME280;20865;43.312;27.152;2023-07-24T02:40:22;100554.89;;;28.79;38.19
34658;BME280;20865;43.312;27.152;2023-07-24T02:42:49;100550.22;;;28.76;38.31
34658;BME280;20865;43.312;27.152;2023-07-24T02:45:17;100553.48;;;28.75;38.21
34658;BME280;20865;43.312;27.152;2023-07-24T02:47:44;100553.97;;;28.70;38.14
34658;BME280;20865;43.312;27.152;2023-07-24T02:50:12;100549.98;;;28.69;38.23
34658;BME280;20865;43.312;27.152;2023-07-24T02:52:40;100548.61;;;28.69;38.22
34658;BME280;20865;43.312;27.152;2023-07-24T02:55:08;100551.19;;;28.66;38.20
34658;BME280;20865;43.312;27.152;2023-07-24T02:57:35;100553.87;;;28.62;38.05
34658;BME280;20865;43.312;27.152;2023-07-24T03:00:04;100554.04;;;28.61;38.06
34658;BME280;20865;43.312;27.152;2023-07-24T03:02:32;100559.33;;;28.58;38.15
34658;BME280;20865;43.312;27.152;2023-07-24T03:04:59;100557.27;;;28.56;38.24
34658;BME280;20865;43.312;27.152;2023-07-24T03:07:27;100553.15;;;28.56;38.31
34658;BME280;20865;43.312;27.152;2023-07-24T03:09:54;100553.28;;;28.55;38.46
34658;BME280;20865;43.312;27.152;2023-07-24T03:12:22;100553.59;;;28.52;38.29
34658;BME280;20865;43.312;27.152;2023-07-24T03:14:50;100553.55;;;28.47;38.32
34658;BME280;20865;43.312;27.152;2023-07-24T03:17:17;100555.23;;;28.44;38.47
34658;BME280;20865;43.312;27.152;2023-07-24T03:19:45;100549.91;;;28.43;38.67
34658;BME280;20865;43.312;27.152;2023-07-24T03:22:12;100554.89;;;28.43;39.08
34658;BME280;20865;43.312;27.152;2023-07-24T03:24:40;100557.30;;;28.42;39.21
34658;BME280;20865;43.312;27.152;2023-07-24T03:27:08;100564.30;;;28.41;39.33
34658;BME280;20865;43.312;27.152;2023-07-24T03:29:35;100557.25;;;28.38;39.20
34658;BME280;20865;43.312;27.152;2023-07-24T03:32:04;100561.83;;;28.38;39.35
34658;BME280;20865;43.312;27.152;2023-07-24T03:34:31;100559.84;;;28.40;39.27
34658;BME280;20865;43.312;27.152;2023-07-24T03:36:59;100558.80;;;28.41;39.12
34658;BME280;20865;43.312;27.152;2023-07-24T03:39:26;100555.20;;;28.40;39.01
34658;BME280;20865;43.312;27.152;2023-07-24T03:41:54;100558.67;;;28.42;39.01
34658;BME280;20865;43.312;27.152;2023-07-24T03:44:22;100553.52;;;28.43;38.99
34658;BME280;20865;43.312;27.152;2023-07-24T03:46:49;100547.81;;;28.41;39.04
34658;BME280;20865;43.312;27.152;2023-07-24T03:49:17;100550.77;;;28.43;39.16
34658;BME280;20865;43.312;27.152;2023-07-24T03:51:44;100556.61;;;28.44;39.24
34658;BME280;20865;43.312;27.152;2023-07-24T03:54:12;100553.55;;;28.47;39.41
34658;BME280;20865;43.312;27.152;2023-07-24T03:56:39;100557.33;;;28.46;39.61
34658;BME280;20865;43.312;27.152;2023-07-24T03:59:07;100566.27;;;28.48;39.71
34658;BME280;20865;43.312;27.152;2023-07-24T04:01:34;100558.95;;;28.53;39.81
34658;BME280;20865;43.312;27.152;2023-07-24T04:04:02;100564.48;;;28.57;39.89
34658;BME280;20865;43.312;27.152;2023-07-24T04:06:30;100561.73;;;28.57;39.99
34658;BME280;20865;43.312;27.152;2023-07-24T04:08:57;100566.44;;;28.65;40.10
34658;BME280;20865;43.312;27.152;2023-07-24T04:11:25;100578.84;;;28.69;40.11
34658;BME280;20865;43.312;27.152;2023-07-24T04:13:52;100578.53;;;28.72;40.11
34658;BME280;20865;43.312;27.152;2023-07-24T04:16:20;100580.11;;;28.75;40.24
34658;BME280;20865;43.312;27.152;2023-07-24T04:18:48;100580.83;;;28.77;40.31
34658;BME280;20865;43.312;27.152;2023-07-24T04:21:15;100586.67;;;28.78;40.48
34658;BME280;20865;43.312;27.152;2023-07-24T04:23:43;100587.22;;;28.81;40.59
34658;BME280;20865;43.312;27.152;2023-07-24T04:26:11;100579.52;;;28.85;40.65
34658;BME280;20865;43.312;27.152;2023-07-24T04:28:38;100582.82;;;28.88;40.84
34658;BME280;20865;43.312;27.152;2023-07-24T04:31:06;100584.23;;;28.92;40.94
34658;BME280;20865;43.312;27.152;2023-07-24T04:33:33;100584.62;;;28.98;41.07
34658;BME280;20865;43.312;27.152;2023-07-24T04:36:01;100580.05;;;29.02;41.10
34658;BME280;20865;43.312;27.152;2023-07-24T04:38:28;100576.98;;;29.05;41.05
34658;BME280;20865;43.312;27.152;2023-07-24T04:40:56;100585.13;;;29.15;41.07
34658;BME280;20865;43.312;27.152;2023-07-24T04:43:24;100579.83;;;29.17;41.09
34658;BME280;20865;43.312;27.152;2023-07-24T04:45:51;100577.98;;;29.22;41.10
34658;BME280;20865;43.312;27.152;2023-07-24T04:48:20;100577.52;;;29.31;41.41
34658;BME280;20865;43.312;27.152;2023-07-24T04:50:55;100574.99;;;29.37;41.32
34658;BME280;20865;43.312;27.152;2023-07-24T04:53:23;100566.10;;;29.43;41.18
34658;BME280;20865;43.312;27.152;2023-07-24T04:55:51;100566.42;;;29.40;41.29
34658;BME280;20865;43.312;27.152;2023-07-24T04:58:18;100570.05;;;29.45;41.54
34658;BME280;20865;43.312;27.152;2023-07-24T05:00:46;100574.59;;;29.54;41.97
34658;BME280;20865;43.312;27.152;2023-07-24T05:03:13;100572.97;;;29.65;41.80
34658;BME280;20865;43.312;27.152;2023-07-24T05:05:42;100577.51;;;29.57;41.80
34658;BME280;20865;43.312;27.152;2023-07-24T05:08:10;100581.45;;;29.76;41.82
34658;BME280;20865;43.312;27.152;2023-07-24T05:10:38;100592.72;;;29.95;41.67
34658;BME280;20865;43.312;27.152;2023-07-24T05:13:05;100592.27;;;30.04;41.59
34658;BME280;20865;43.312;27.152;2023-07-24T05:15:33;100586.17;;;30.26;41.50
34658;BME280;20865;43.312;27.152;2023-07-24T05:18:00;100589.84;;;30.39;41.61
34658;BME280;20865;43.312;27.152;2023-07-24T05:20:28;100583.67;;;30.57;41.33
34658;BME280;20865;43.312;27.152;2023-07-24T05:22:55;100576.52;;;30.81;41.02
34658;BME280;20865;43.312;27.152;2023-07-24T05:25:23;100583.58;;;30.96;40.79
34658;BME280;20865;43.312;27.152;2023-07-24T05:27:51;100587.03;;;31.10;40.70
34658;BME280;20865;43.312;27.152;2023-07-24T05:30:18;100585.67;;;31.18;40.76
34658;BME280;20865;43.312;27.152;2023-07-24T05:32:46;100587.41;;;31.36;40.83
34658;BME280;20865;43.312;27.152;2023-07-24T05:35:13;100584.45;;;31.53;40.51
34658;BME280;20865;43.312;27.152;2023-07-24T05:37:41;100583.39;;;31.67;40.35
34658;BME280;20865;43.312;27.152;2023-07-24T05:40:09;100581.80;;;31.81;40.05
34658;BME280;20865;43.312;27.152;2023-07-24T05:42:36;100587.30;;;31.93;39.95
34658;BME280;20865;43.312;27.152;2023-07-24T05:45:08;100592.77;;;32.09;39.77
34658;BME280;20865;43.312;27.152;2023-07-24T05:47:35;100582.15;;;32.29;39.35
34658;BME280;20865;43.312;27.152;2023-07-24T05:50:03;100588.48;;;32.42;39.22
34658;BME280;20865;43.312;27.152;2023-07-24T05:52:31;100578.03;;;32.56;38.90
34658;BME280;20865;43.312;27.152;2023-07-24T05:54:59;100568.41;;;32.75;38.98
34658;BME280;20865;43.312;27.152;2023-07-24T05:57:26;100572.16;;;32.82;38.85
34658;BME280;20865;43.312;27.152;2023-07-24T05:59:54;100580.75;;;32.87;38.95
34658;BME280;20865;43.312;27.152;2023-07-24T06:02:22;100578.79;;;33.00;39.10
34658;BME280;20865;43.312;27.152;2023-07-24T06:04:50;100582.16;;;33.10;38.86
34658;BME280;20865;43.312;27.152;2023-07-24T06:07:17;100574.42;;;33.25;38.65
34658;BME280;20865;43.312;27.152;2023-07-24T06:09:45;100569.77;;;33.40;38.61
34658;BME280;20865;43.312;27.152;2023-07-24T06:12:12;100571.88;;;33.57;38.57
34658;BME280;20865;43.312;27.152;2023-07-24T06:14:42;100564.45;;;33.72;38.50
34658;BME280;20865;43.312;27.152;2023-07-24T06:17:09;100565.25;;;33.77;37.78
34658;BME280;20865;43.312;27.152;2023-07-24T06:19:36;100561.14;;;33.87;37.69
34658;BME280;20865;43.312;27.152;2023-07-24T06:22:04;100557.35;;;34.03;37.71
34658;BME280;20865;43.312;27.152;2023-07-24T06:24:32;100556.85;;;34.14;37.29
34658;BME280;20865;43.312;27.152;2023-07-24T06:26:59;100564.06;;;34.30;37.73
34658;BME280;20865;43.312;27.152;2023-07-24T06:29:27;100564.44;;;34.42;37.53
34658;BME280;20865;43.312;27.152;2023-07-24T06:31:54;100557.02;;;34.53;37.13
34658;BME280;20865;43.312;27.152;2023-07-24T06:34:22;100554.92;;;34.66;37.16
34658;BME280;20865;43.312;27.152;2023-07-24T06:36:49;100551.02;;;34.82;37.01
34658;BME280;20865;43.312;27.152;2023-07-24T06:39:17;100560.66;;;34.86;36.71
34658;BME280;20865;43.312;27.152;2023-07-24T06:41:45;100556.58;;;35.03;36.40
34658;BME280;20865;43.312;27.152;2023-07-24T06:44:12;100553.09;;;35.05;36.04
34658;BME280;20865;43.312;27.152;2023-07-24T06:46:40;100555.07;;;35.12;35.55
34658;BME280;20865;43.312;27.152;2023-07-24T06:49:07;100549.05;;;35.19;35.60
34658;BME280;20865;43.312;27.152;2023-07-24T06:51:36;100549.88;;;35.30;35.70
34658;BME280;20865;43.312;27.152;2023-07-24T06:54:05;100547.78;;;35.39;36.46
34658;BME280;20865;43.312;27.152;2023-07-24T06:56:33;100539.27;;;35.51;35.63
34658;BME280;20865;43.312;27.152;2023-07-24T06:59:00;100545.90;;;35.67;35.32
34658;BME280;20865;43.312;27.152;2023-07-24T07:01:28;100534.08;;;35.76;35.74
34658;BME280;20865;43.312;27.152;2023-07-24T07:03:56;100536.48;;;35.86;34.90
34658;BME280;20865;43.312;27.152;2023-07-24T07:06:23;100526.64;;;36.00;35.11
34658;BME280;20865;43.312;27.152;2023-07-24T07:08:51;100523.60;;;36.13;35.12
34658;BME280;20865;43.312;27.152;2023-07-24T07:11:18;100523.19;;;36.22;34.94
34658;BME280;20865;43.312;27.152;2023-07-24T07:13:46;100527.22;;;36.37;33.85
34658;BME280;20865;43.312;27.152;2023-07-24T07:16:14;100521.62;;;36.55;34.18
34658;BME280;20865;43.312;27.152;2023-07-24T07:18:43;100522.36;;;36.59;33.63
34658;BME280;20865;43.312;27.152;2023-07-24T07:21:10;100516.16;;;36.64;33.63
34658;BME280;20865;43.312;27.152;2023-07-24T07:23:38;100514.05;;;36.79;33.08
34658;BME280;20865;43.312;27.152;2023-07-24T07:26:06;100511.59;;;36.93;33.17
34658;BME280;20865;43.312;27.152;2023-07-24T07:28:33;100513.53;;;37.00;32.15
34658;BME280;20865;43.312;27.152;2023-07-24T07:31:01;100507.11;;;36.86;31.86
34658;BME280;20865;43.312;27.152;2023-07-24T07:33:28;100507.00;;;37.10;32.57
34658;BME280;20865;43.312;27.152;2023-07-24T07:35:56;100503.05;;;37.15;32.82
34658;BME280;20865;43.312;27.152;2023-07-24T07:38:23;100493.19;;;37.19;32.29
34658;BME280;20865;43.312;27.152;2023-07-24T07:40:51;100495.11;;;37.32;32.37
34658;BME280;20865;43.312;27.152;2023-07-24T07:43:20;100499.16;;;37.42;32.10
34658;BME280;20865;43.312;27.152;2023-07-24T07:45:47;100492.54;;;37.43;32.97
34658;BME280;20865;43.312;27.152;2023-07-24T07:48:15;100486.62;;;37.56;32.57
34658;BME280;20865;43.312;27.152;2023-07-24T07:50:42;100479.58;;;37.76;31.58
34658;BME280;20865;43.312;27.152;2023-07-24T07:53:10;100483.86;;;37.78;32.10
34658;BME280;20865;43.312;27.152;2023-07-24T07:55:37;100471.97;;;37.80;31.39
34658;BME280;20865;43.312;27.152;2023-07-24T07:58:05;100472.39;;;37.91;31.02
34658;BME280;20865;43.312;27.152;2023-07-24T08:00:33;100462.67;;;38.00;30.92
34658;BME280;20865;43.312;27.152;2023-07-24T08:03:00;100461.69;;;38.03;30.32
34658;BME280;20865;43.312;27.152;2023-07-24T08:05:28;100458.16;;;38.21;29.20
34658;BME280;20865;43.312;27.152;2023-07-24T08:07:55;100459.30;;;38.29;28.15
34658;BME280;20865;43.312;27.152;2023-07-24T08:10:23;100458.93;;;38.35;27.58
34658;BME280;20865;43.312;27.152;2023-07-24T08:12:51;100451.38;;;38.26;26.58
34658;BME280;20865;43.312;27.152;2023-07-24T08:15:18;100462.21;;;38.48;26.87
34658;BME280;20865;43.312;27.152;2023-07-24T08:17:46;100452.14;;;38.47;27.02
34658;BME280;20865;43.312;27.152;2023-07-24T08:20:13;100442.84;;;38.53;26.29
34658;BME280;20865;43.312;27.152;2023-07-24T08:22:41;100446.42;;;38.51;25.35
34658;BME280;20865;43.312;27.152;2023-07-24T08:25:09;100448.02;;;38.65;26.47
34658;BME280;20865;43.312;27.152;2023-07-24T08:27:36;100433.77;;;38.73;25.76
34658;BME280;20865;43.312;27.152;2023-07-24T08:30:05;100443.33;;;38.27;24.24
34658;BME280;20865;43.312;27.152;2023-07-24T08:32:32;100447.95;;;38.47;23.92
34658;BME280;20865;43.312;27.152;2023-07-24T08:35:00;100439.89;;;38.64;24.05
34658;BME280;20865;43.312;27.152;2023-07-24T08:37:27;100436.55;;;38.64;23.85
34658;BME280;20865;43.312;27.152;2023-07-24T08:39:55;100436.96;;;38.77;24.74
34658;BME280;20865;43.312;27.152;2023-07-24T08:42:23;100440.52;;;38.91;23.66
34658;BME280;20865;43.312;27.152;2023-07-24T08:44:52;100428.11;;;38.87;22.53
34658;BME280;20865;43.312;27.152;2023-07-24T08:47:20;100426.87;;;38.82;22.89
34658;BME280;20865;43.312;27.152;2023-07-24T08:49:49;100435.09;;;38.87;23.61
34658;BME280;20865;43.312;27.152;2023-07-24T08:52:18;100430.93;;;39.05;25.16
34658;BME280;20865;43.312;27.152;2023-07-24T08:54:46;100430.86;;;39.27;25.16
34658;BME280;20865;43.312;27.152;2023-07-24T08:57:14;100438.38;;;39.45;25.24
34658;BME280;20865;43.312;27.152;2023-07-24T08:59:42;100437.13;;;39.50;25.73
34658;BME280;20865;43.312;27.152;2023-07-24T09:02:10;100429.38;;;39.62;23.09
34658;BME280;20865;43.312;27.152;2023-07-24T09:04:37;100431.16;;;39.65;24.54
34658;BME280;20865;43.312;27.152;2023-07-24T09:07:05;100429.30;;;39.77;23.33
34658;BME280;20865;43.312;27.152;2023-07-24T09:09:34;100429.47;;;39.83;23.22
34658;BME280;20865;43.312;27.152;2023-07-24T09:12:01;100426.59;;;39.89;22.69
34658;BME280;20865;43.312;27.152;2023-07-24T09:14:30;100423.58;;;40.03;23.86
34658;BME280;20865;43.312;27.152;2023-07-24T09:17:07;100422.26;;;40.05;23.40
34658;BME280;20865;43.312;27.152;2023-07-24T09:19:35;100418.08;;;40.14;23.14
34658;BME280;20865;43.312;27.152;2023-07-24T09:22:16;100415.02;;;40.25;23.90
34658;BME280;20865;43.312;27.152;2023-07-24T09:24:53;100408.84;;;40.35;23.26
34658;BME280;20865;43.312;27.152;2023-07-24T09:27:24;100403.25;;;40.35;22.46
34658;BME280;20865;43.312;27.152;2023-07-24T09:29:51;100395.22;;;40.38;22.31
34658;BME280;20865;43.312;27.152;2023-07-24T09:32:26;100393.45;;;40.35;22.29
34658;BME280;20865;43.312;27.152;2023-07-24T09:34:54;100395.63;;;40.33;23.01
34658;BME280;20865;43.312;27.152;2023-07-24T09:37:30;100394.61;;;40.48;24.14
34658;BME280;20865;43.312;27.152;2023-07-24T09:39:54;100394.46;;;40.52;23.71
34658;BME280;20865;43.312;27.152;2023-07-24T09:42:29;100389.53;;;40.57;24.34
34658;BME280;20865;43.312;27.152;2023-07-24T09:44:57;100391.99;;;40.65;23.36
34658;BME280;20865;43.312;27.152;2023-07-24T09:47:25;100379.28;;;40.71;23.08
34658;BME280;20865;43.312;27.152;2023-07-24T09:49:54;100381.12;;;40.78;23.76
34658;BME280;20865;43.312;27.152;2023-07-24T09:52:24;100368.71;;;40.74;24.07
34658;BME280;20865;43.312;27.152;2023-07-24T09:57:35;100365.47;;;40.79;23.20
34658;BME280;20865;43.312;27.152;2023-07-24T10:00:03;100360.78;;;40.82;23.80
34658;BME280;20865;43.312;27.152;2023-07-24T10:02:33;100358.97;;;40.88;22.35
34658;BME280;20865;43.312;27.152;2023-07-24T10:05:02;100359.63;;;40.92;22.64
34658;BME280;20865;43.312;27.152;2023-07-24T10:07:31;100360.60;;;40.98;23.44
34658;BME280;20865;43.312;27.152;2023-07-24T10:09:59;100340.94;;;40.95;21.97
34658;BME280;20865;43.312;27.152;2023-07-24T10:12:28;100350.52;;;41.09;22.94
34658;BME280;20865;43.312;27.152;2023-07-24T10:14:59;100351.36;;;41.09;21.33
34658;BME280;20865;43.312;27.152;2023-07-24T10:17:37;100346.38;;;41.11;21.77
34658;BME280;20865;43.312;27.152;2023-07-24T10:20:07;100343.87;;;41.12;21.77
34658;BME280;20865;43.312;27.152;2023-07-24T10:22:35;100341.23;;;41.20;21.49
34658;BME280;20865;43.312;27.152;2023-07-24T10:25:08;100343.25;;;41.22;21.68
34658;BME280;20865;43.312;27.152;2023-07-24T10:27:41;100333.25;;;41.26;21.29
34658;BME280;20865;43.312;27.152;2023-07-24T10:30:09;100323.38;;;41.24;20.11
34658;BME280;20865;43.312;27.152;2023-07-24T10:32:47;100330.50;;;41.29;20.54
34658;BME280;20865;43.312;27.152;2023-07-24T10:35:16;100324.56;;;41.39;20.76
34658;BME280;20865;43.312;27.152;2023-07-24T10:37:44;100319.08;;;41.45;20.49
34658;BME280;20865;43.312;27.152;2023-07-24T10:40:19;100316.54;;;41.43;19.67
34658;BME280;20865;43.312;27.152;2023-07-24T10:42:58;100317.04;;;41.54;20.44
34658;BME280;20865;43.312;27.152;2023-07-24T10:45:16;100310.94;;;41.57;20.32
34658;BME280;20865;43.312;27.152;2023-07-24T10:47:44;100306.23;;;41.60;20.73
34658;BME280;20865;43.312;27.152;2023-07-24T10:50:11;100301.70;;;41.59;19.07
34658;BME280;20865;43.312;27.152;2023-07-24T10:52:39;100292.80;;;41.62;19.33
34658;BME280;20865;43.312;27.152;2023-07-24T10:55:07;100299.02;;;41.64;20.13
34658;BME280;20865;43.312;27.152;2023-07-24T10:57:35;100292.70;;;41.72;20.57
34658;BME280;20865;43.312;27.152;2023-07-24T11:00:03;100295.30;;;41.76;19.81
34658;BME280;20865;43.312;27.152;2023-07-24T11:02:30;100286.95;;;41.78;19.70
34658;BME280;20865;43.312;27.152;2023-07-24T11:04:59;100288.23;;;41.85;19.67
34658;BME280;20865;43.312;27.152;2023-07-24T11:07:31;100287.95;;;41.86;19.54
34658;BME280;20865;43.312;27.152;2023-07-24T11:09:57;100288.30;;;41.90;19.12
34658;BME280;20865;43.312;27.152;2023-07-24T11:12:25;100291.72;;;41.92;19.65
34658;BME280;20865;43.312;27.152;2023-07-24T11:14:54;100289.20;;;41.93;19.21
34658;BME280;20865;43.312;27.152;2023-07-24T11:17:22;100287.67;;;41.85;18.30
34658;BME280;20865;43.312;27.152;2023-07-24T11:19:51;100288.52;;;41.86;19.28
34658;BME280;20865;43.312;27.152;2023-07-24T11:22:21;100277.37;;;41.91;19.04
34658;BME280;20865;43.312;27.152;2023-07-24T11:24:50;100283.81;;;41.89;18.31
34658;BME280;20865;43.312;27.152;2023-07-24T11:27:17;100270.29;;;41.86;18.31
34658;BME280;20865;43.312;27.152;2023-07-24T11:29:49;100266.98;;;41.89;18.45
34658;BME280;20865;43.312;27.152;2023-07-24T11:32:21;100268.78;;;41.95;17.73
34658;BME280;20865;43.312;27.152;2023-07-24T11:34:50;100266.05;;;42.00;18.42
34658;BME280;20865;43.312;27.152;2023-07-24T11:37:18;100258.24;;;42.02;18.59
34658;BME280;20865;43.312;27.152;2023-07-24T11:39:59;100248.38;;;42.00;16.48
34658;BME280;20865;43.312;27.152;2023-07-24T11:42:29;100247.21;;;41.98;17.26
34658;BME280;20865;43.312;27.152;2023-07-24T11:45:00;100240.81;;;42.00;17.15
34658;BME280;20865;43.312;27.152;2023-07-24T11:47:26;100246.97;;;42.00;18.27
34658;BME280;20865;43.312;27.152;2023-07-24T11:49:58;100245.11;;;41.88;18.24
34658;BME280;20865;43.312;27.152;2023-07-24T11:52:36;100242.09;;;41.93;18.60
34658;BME280;20865;43.312;27.152;2023-07-24T11:54:58;100247.59;;;41.87;18.63
34658;BME280;20865;43.312;27.152;2023-07-24T11:57:28;100238.31;;;41.84;18.41
34658;BME280;20865;43.312;27.152;2023-07-24T11:59:56;100234.73;;;41.89;18.08
34658;BME280;20865;43.312;27.152;2023-07-24T12:02:28;100228.02;;;41.90;17.73
34658;BME280;20865;43.312;27.152;2023-07-24T12:04:56;100226.06;;;41.91;16.37
34658;BME280;20865;43.312;27.152;2023-07-24T12:07:33;100229.08;;;41.86;16.27
34658;BME280;20865;43.312;27.152;2023-07-24T12:09:57;100218.47;;;41.88;18.19
34658;BME280;20865;43.312;27.152;2023-07-24T12:12:25;100217.06;;;41.88;18.32
34658;BME280;20865;43.312;27.152;2023-07-24T12:14:53;100212.09;;;41.79;16.52
34658;BME280;20865;43.312;27.152;2023-07-24T12:17:20;100209.30;;;41.79;17.26
34658;BME280;20865;43.312;27.152;2023-07-24T12:19:48;100204.80;;;41.78;17.24
34658;BME280;20865;43.312;27.152;2023-07-24T12:22:16;100201.46;;;41.81;18.50
34658;BME280;20865;43.312;27.152;2023-07-24T12:24:45;100204.82;;;41.80;18.53
34658;BME280;20865;43.312;27.152;2023-07-24T12:27:13;100204.24;;;41.78;19.11
34658;BME280;20865;43.312;27.152;2023-07-24T12:29:40;100196.84;;;41.72;18.04
34658;BME280;20865;43.312;27.152;2023-07-24T12:32:08;100194.33;;;41.73;18.87
34658;BME280;20865;43.312;27.152;2023-07-24T12:34:36;100190.13;;;41.73;19.06
34658;BME280;20865;43.312;27.152;2023-07-24T12:37:03;100192.52;;;41.64;17.92
34658;BME280;20865;43.312;27.152;2023-07-24T12:39:31;100194.85;;;41.41;18.15
34658;BME280;20865;43.312;27.152;2023-07-24T12:41:58;100188.77;;;41.30;18.78
34658;BME280;20865;43.312;27.152;2023-07-24T12:44:26;100185.68;;;41.29;18.31
34658;BME280;20865;43.312;27.152;2023-07-24T12:46:54;100183.17;;;41.30;18.33
34658;BME280;20865;43.312;27.152;2023-07-24T12:49:21;100186.05;;;41.35;19.03
34658;BME280;20865;43.312;27.152;2023-07-24T12:51:49;100180.71;;;41.34;19.94